Aviation Digital Data Service (ADDS)

Output produced by METARs form (1936 UTC 23 January 2019)
found at http://www.aviationweather.gov/metar/data/
 
Forecast for: ZWWW (URUM-QI/DIWOPU , CN)
Text: TAF ZWWW 231503Z 2318/2418 18002MPS 1600 BR NSC TXM06/09Z TNM14/23Z
Forecast period: 1800 UTC 23 January 2019 to 0300 UTC 24 January 2019
Forecast type: FROM: standard forecast or significant change
Winds: from the S (180 degrees) at 5 MPH (4 knots; 2.1 m/s)
Visibility: 0.99 miles (1.59 km)
Ceiling: unknown
Clouds: missing
Weather: BR  (mist)
Text: BECMG 2403/2404 36002MPS
Forecast period: 0300 to 1200 UTC 24 January 2019
Forecast type: BECOMING: Conditions expected to become as follows by 0400 UTC 24 January 2019
Winds: from the N (360 degrees) at 5 MPH (4 knots; 2.1 m/s)
Visibility: 0.99 miles (1.59 km)
Ceiling: unknown
Clouds: missing
Weather: BR  (mist)
Text: BECMG 2412/2413 18002MPS
Forecast period: 1200 to 1800 UTC 24 January 2019
Forecast type: BECOMING: Conditions expected to become as follows by 1300 UTC 24 January 2019
Winds: from the S (180 degrees) at 5 MPH (4 knots; 2.1 m/s)
Visibility: 0.99 miles (1.59 km)
Ceiling: unknown
Clouds: missing
Weather: BR  (mist)